Marchicora — V2OQ7 — position and weather

sailwx.info

Track history (hours):
 
Tides and Currents Weather Stations Pressure Air Temp Water Temp Dewpoint Dewpoint Depression Visibility Wind Speed Wind Dir Waves Ship Positions

Marchicora

Last reported at 2017-Nov-15 16:04 UTC. Time now 2017-Nov-24 00:13 UTC.
Position N 36°14' E 014°49'.
Warning: this ship's position is 8 days out of date.

Length 153 m; draft 9.5 m.

Type: Cargo ship. MMSI: 304653000.

Date/timePositionNaut miles runAvg speedWind from/ knotsBaromVisibWave heightAir tempDewpointWater temp
2017-Nov-15 16:04N 36°14' E 014°49'113.0
2017-Nov-15 15:59N 36°14' E 014°48'613.0
2017-Nov-15 15:29N 36°17' E 014°41'613.0
2017-Nov-15 15:00N 36°19' E 014°33'713.2
2017-Nov-15 14:30N 36°22' E 014°26'612.8
2017-Nov-15 14:00N 36°26' E 014°20'612.8
2017-Nov-15 13:30N 36°29' E 014°13'612.7
2017-Nov-15 12:59N 36°33' E 014°06'612.7
2017-Nov-15 12:30N 36°36' E 014°00'612.8
2017-Nov-15 12:00N 36°40' E 013°53'612.9
2017-Nov-15 11:30N 36°44' E 013°47'612.9
2017-Nov-15 11:00N 36°47' E 013°40'713.0
2017-Nov-15 10:30N 36°51' E 013°33'  
2017-Nov-12 21:33N 36°39' W 000°31'712.9
2017-Nov-12 21:00N 36°37' W 000°40'712.8
2017-Nov-12 20:29N 36°36' W 000°48'20913.1
2017-Nov-12 04:32N 36°02' W 005°03'114.0
2017-Nov-12 04:29N 36°02' W 005°04'713.9
2017-Nov-12 04:00N 36°01' W 005°12'713.9
2017-Nov-12 03:31N 35°59' W 005°21'714.2
2017-Nov-12 03:01N 35°57' W 005°29'15012.8
2017-Nov-11 15:18N 36°24' W 008°32'1912.4
2017-Nov-11 13:48N 36°29' W 008°54'612.5
2017-Nov-11 13:18N 36°31' W 009°01'812.1
2017-Nov-11 12:36N 36°33' W 009°12'211.9
2017-Nov-11 12:26N 36°33' W 009°14'2612.3
2017-Nov-11 10:20N 36°54' W 009°34'412.6
2017-Nov-11 10:00N 36°58' W 009°35'612.5
2017-Nov-11 09:30N 37°04' W 009°37'712.2
2017-Nov-11 08:54N 37°11' W 009°39'512.2
2017-Nov-11 08:30N 37°16' W 009°40'612.7
2017-Nov-11 08:00N 37°22' W 009°42'612.9
2017-Nov-11 07:30N 37°28' W 009°44'713.0
2017-Nov-11 06:58N 37°35' W 009°46'613.0
2017-Nov-11 06:30N 37°41' W 009°48'612.8
2017-Nov-11 05:59N 37°47' W 009°49'612.6
2017-Nov-11 05:30N 37°53' W 009°51'612.4
2017-Nov-11 05:00N 37°59' W 009°53'612.5
2017-Nov-11 04:30N 38°05' W 009°55'612.8
2017-Nov-11 04:00N 38°11' W 009°57'612.8
2017-Nov-11 03:30N 38°18' W 009°59'612.7
2017-Nov-11 03:00N 38°24' W 010°01'612.8
2017-Nov-11 02:30N 38°30' W 010°02'612.6
2017-Nov-11 02:00N 38°36' W 010°04'612.3
2017-Nov-11 01:30N 38°42' W 010°05'612.4
2017-Nov-11 01:00N 38°48' W 010°06'612.3
2017-Nov-11 00:30N 38°55' W 010°06'612.3
2017-Nov-11 00:00N 39°01' W 010°07'612.4
2017-Nov-10 23:30N 39°07' W 010°06'612.5
2017-Nov-10 23:00N 39°13' W 010°06'612.1
2017-Nov-10 22:30N 39°19' W 010°06'  
2017-Nov-08 12:44N 49°43' W 003°37'312.9
2017-Nov-08 12:29N 49°44' W 003°32'612.5
2017-Nov-08 12:00N 49°47' W 003°24'611.8
2017-Nov-08 11:30N 49°50' W 003°17'611.3
2017-Nov-08 11:00N 49°53' W 003°09'510.7
2017-Nov-08 10:30N 49°56' W 003°02'510.2
2017-Nov-08 10:00N 49°58' W 002°55'510.0
2017-Nov-08 09:29N 49°60' W 002°47'510.0
2017-Nov-08 09:00N 50°01' W 002°40'510.1
2017-Nov-08 08:30N 50°02' W 002°32'510.5
2017-Nov-08 08:00N 50°04' W 002°24'1912.2
2017-Nov-08 06:26N 50°10' W 001°56'614.2
2017-Nov-08 06:00N 50°11' W 001°47'714.8
2017-Nov-08 05:30N 50°14' W 001°36'815.3
2017-Nov-08 05:00N 50°16' W 001°25'2815.1
2017-Nov-08 03:12N 50°24' W 000°43'313.7
2017-Nov-08 03:00N 50°25' W 000°39'813.4
2017-Nov-08 02:24N 50°26' W 000°27'512.8
2017-Nov-08 02:01N 50°28' W 000°19'612.3
2017-Nov-08 01:30N 50°29' W 000°10'611.8
2017-Nov-08 01:00N 50°31' W 000°01'611.1
2017-Nov-08 00:31N 50°33' E 000°07'510.5
2017-Nov-08 00:00N 50°34' E 000°15'510.1
2017-Nov-07 23:30N 50°35' E 000°23'5 9.7
2017-Nov-07 23:01N 50°37' E 000°30'5 9.8
2017-Nov-07 22:31N 50°39' E 000°37'510.7
2017-Nov-07 22:01N 50°42' E 000°44'611.4
2017-Nov-07 21:30N 50°46' E 000°51'612.4
2017-Nov-07 21:01N 50°49' E 000°58'713.2
2017-Nov-07 20:30N 50°54' E 001°07'713.6
2017-Nov-07 20:00N 50°58' E 001°15'713.6
2017-Nov-07 19:31N 51°02' E 001°23'713.1
2017-Nov-07 19:00N 51°06' E 001°32'612.0
2017-Nov-07 18:30N 51°10' E 001°39'611.4
2017-Nov-07 18:01N 51°14' E 001°46'510.9
2017-Nov-07 17:30N 51°19' E 001°49'510.1
2017-Nov-07 17:00N 51°23' E 001°53'5 9.9
2017-Nov-07 16:31N 51°27' E 001°58'5 9.7
2017-Nov-07 16:00N 51°31' E 002°03'5 9.8
2017-Nov-07 15:30N 51°35' E 002°08'5 9.8
2017-Nov-07 15:00N 51°38' E 002°13'510.0
2017-Nov-07 14:29N 51°42' E 002°19'610.3
2017-Nov-07 13:55N 51°46' E 002°25'39411.1
2017-Nov-06 02:30N 57°23' E 008°17'510.4
2017-Nov-06 02:00N 57°26' E 008°25'510.6
2017-Nov-06 01:29N 57°29' E 008°33'510.7
2017-Nov-06 01:00N 57°32' E 008°42'610.9
2017-Nov-06 00:29N 57°35' E 008°50'610.8
2017-Nov-05 23:59N 57°38' E 008°59'510.7
2017-Nov-05 23:30N 57°40' E 009°07'510.6
2017-Nov-05 23:00N 57°43' E 009°16'610.8
2017-Nov-05 22:29N 57°46' E 009°25'510.8
2017-Nov-05 21:59N 57°49' E 009°34'510.6
2017-Nov-05 21:30N 57°50' E 009°43'610.8
2017-Nov-05 20:59N 57°51' E 009°53'611.1
2017-Nov-05 20:29N 57°51' E 010°04'511.2
2017-Nov-05 20:01N 57°51' E 010°13'611.3
2017-Nov-05 19:30N 57°51' E 010°24'611.0
2017-Nov-05 19:00N 57°51' E 010°35'510.2
2017-Nov-05 18:29N 57°49' E 010°44'510.4
2017-Nov-05 18:00N 57°46' E 010°51'611.3
2017-Nov-05 17:30N 57°42' E 010°58'611.3
2017-Nov-05 17:00N 57°38' E 011°06'611.4
2017-Nov-05 16:29N 57°34' E 011°14'  
Track history (hours):
 
Tides and Currents Weather Stations Pressure Air Temp Water Temp Dewpoint Dewpoint Depression Visibility Wind Speed Wind Dir Waves Ship Positions

Marchicora

Last reported at 2017-Nov-15 16:04 UTC. Time now 2017-Nov-24 00:13 UTC.
Position N 36°14' E 014°49'.
Warning: this ship's position is 8 days out of date.

Length 153 m; draft 9.5 m.

Type: Cargo ship. MMSI: 304653000.

Date/timePositionNaut miles runAvg speedWind from/ knotsBaromVisibWave heightAir tempDewpointWater temp
2017-Nov-15 16:04N 36°14' E 014°49'113.0
2017-Nov-15 15:59N 36°14' E 014°48'613.0
2017-Nov-15 15:29N 36°17' E 014°41'613.0
2017-Nov-15 15:00N 36°19' E 014°33'713.2
2017-Nov-15 14:30N 36°22' E 014°26'612.8
2017-Nov-15 14:00N 36°26' E 014°20'612.8
2017-Nov-15 13:30N 36°29' E 014°13'612.7
2017-Nov-15 12:59N 36°33' E 014°06'612.7
2017-Nov-15 12:30N 36°36' E 014°00'612.8
2017-Nov-15 12:00N 36°40' E 013°53'612.9
2017-Nov-15 11:30N 36°44' E 013°47'612.9
2017-Nov-15 11:00N 36°47' E 013°40'713.0
2017-Nov-15 10:30N 36°51' E 013°33'  
2017-Nov-12 21:33N 36°39' W 000°31'712.9
2017-Nov-12 21:00N 36°37' W 000°40'712.8
2017-Nov-12 20:29N 36°36' W 000°48'20913.1
2017-Nov-12 04:32N 36°02' W 005°03'114.0
2017-Nov-12 04:29N 36°02' W 005°04'713.9
2017-Nov-12 04:00N 36°01' W 005°12'713.9
2017-Nov-12 03:31N 35°59' W 005°21'714.2
2017-Nov-12 03:01N 35°57' W 005°29'15012.8
2017-Nov-11 15:18N 36°24' W 008°32'1912.4
2017-Nov-11 13:48N 36°29' W 008°54'612.5
2017-Nov-11 13:18N 36°31' W 009°01'812.1
2017-Nov-11 12:36N 36°33' W 009°12'211.9
2017-Nov-11 12:26N 36°33' W 009°14'2612.3
2017-Nov-11 10:20N 36°54' W 009°34'412.6
2017-Nov-11 10:00N 36°58' W 009°35'612.5
2017-Nov-11 09:30N 37°04' W 009°37'712.2
2017-Nov-11 08:54N 37°11' W 009°39'512.2
2017-Nov-11 08:30N 37°16' W 009°40'612.7
2017-Nov-11 08:00N 37°22' W 009°42'612.9
2017-Nov-11 07:30N 37°28' W 009°44'713.0
2017-Nov-11 06:58N 37°35' W 009°46'613.0
2017-Nov-11 06:30N 37°41' W 009°48'612.8
2017-Nov-11 05:59N 37°47' W 009°49'612.6
2017-Nov-11 05:30N 37°53' W 009°51'612.4
2017-Nov-11 05:00N 37°59' W 009°53'612.5
2017-Nov-11 04:30N 38°05' W 009°55'612.8
2017-Nov-11 04:00N 38°11' W 009°57'612.8
2017-Nov-11 03:30N 38°18' W 009°59'612.7
2017-Nov-11 03:00N 38°24' W 010°01'612.8
2017-Nov-11 02:30N 38°30' W 010°02'612.6
2017-Nov-11 02:00N 38°36' W 010°04'612.3
2017-Nov-11 01:30N 38°42' W 010°05'612.4
2017-Nov-11 01:00N 38°48' W 010°06'612.3
2017-Nov-11 00:30N 38°55' W 010°06'612.3
2017-Nov-11 00:00N 39°01' W 010°07'612.4
2017-Nov-10 23:30N 39°07' W 010°06'612.5
2017-Nov-10 23:00N 39°13' W 010°06'612.1
2017-Nov-10 22:30N 39°19' W 010°06'  
2017-Nov-08 12:44N 49°43' W 003°37'312.9
2017-Nov-08 12:29N 49°44' W 003°32'612.5
2017-Nov-08 12:00N 49°47' W 003°24'611.8
2017-Nov-08 11:30N 49°50' W 003°17'611.3
2017-Nov-08 11:00N 49°53' W 003°09'510.7
2017-Nov-08 10:30N 49°56' W 003°02'510.2
2017-Nov-08 10:00N 49°58' W 002°55'510.0
2017-Nov-08 09:29N 49°60' W 002°47'510.0
2017-Nov-08 09:00N 50°01' W 002°40'510.1
2017-Nov-08 08:30N 50°02' W 002°32'510.5
2017-Nov-08 08:00N 50°04' W 002°24'1912.2
2017-Nov-08 06:26N 50°10' W 001°56'614.2
2017-Nov-08 06:00N 50°11' W 001°47'714.8
2017-Nov-08 05:30N 50°14' W 001°36'815.3
2017-Nov-08 05:00N 50°16' W 001°25'2815.1
2017-Nov-08 03:12N 50°24' W 000°43'313.7
2017-Nov-08 03:00N 50°25' W 000°39'813.4
2017-Nov-08 02:24N 50°26' W 000°27'512.8
2017-Nov-08 02:01N 50°28' W 000°19'612.3
2017-Nov-08 01:30N 50°29' W 000°10'611.8
2017-Nov-08 01:00N 50°31' W 000°01'611.1
2017-Nov-08 00:31N 50°33' E 000°07'510.5
2017-Nov-08 00:00N 50°34' E 000°15'510.1
2017-Nov-07 23:30N 50°35' E 000°23'5 9.7
2017-Nov-07 23:01N 50°37' E 000°30'5 9.8
2017-Nov-07 22:31N 50°39' E 000°37'510.7
2017-Nov-07 22:01N 50°42' E 000°44'611.4
2017-Nov-07 21:30N 50°46' E 000°51'612.4
2017-Nov-07 21:01N 50°49' E 000°58'713.2
2017-Nov-07 20:30N 50°54' E 001°07'713.6
2017-Nov-07 20:00N 50°58' E 001°15'713.6
2017-Nov-07 19:31N 51°02' E 001°23'713.1
2017-Nov-07 19:00N 51°06' E 001°32'612.0
2017-Nov-07 18:30N 51°10' E 001°39'611.4
2017-Nov-07 18:01N 51°14' E 001°46'510.9
2017-Nov-07 17:30N 51°19' E 001°49'510.1
2017-Nov-07 17:00N 51°23' E 001°53'5 9.9
2017-Nov-07 16:31N 51°27' E 001°58'5 9.7
2017-Nov-07 16:00N 51°31' E 002°03'5 9.8
2017-Nov-07 15:30N 51°35' E 002°08'5 9.8
2017-Nov-07 15:00N 51°38' E 002°13'510.0
2017-Nov-07 14:29N 51°42' E 002°19'610.3
2017-Nov-07 13:55N 51°46' E 002°25'39411.1
2017-Nov-06 02:30N 57°23' E 008°17'510.4
2017-Nov-06 02:00N 57°26' E 008°25'510.6
2017-Nov-06 01:29N 57°29' E 008°33'510.7
2017-Nov-06 01:00N 57°32' E 008°42'610.9
2017-Nov-06 00:29N 57°35' E 008°50'610.8
2017-Nov-05 23:59N 57°38' E 008°59'510.7
2017-Nov-05 23:30N 57°40' E 009°07'510.6
2017-Nov-05 23:00N 57°43' E 009°16'610.8
2017-Nov-05 22:29N 57°46' E 009°25'510.8
2017-Nov-05 21:59N 57°49' E 009°34'510.6
2017-Nov-05 21:30N 57°50' E 009°43'610.8
2017-Nov-05 20:59N 57°51' E 009°53'611.1
2017-Nov-05 20:29N 57°51' E 010°04'511.2
2017-Nov-05 20:01N 57°51' E 010°13'611.3
2017-Nov-05 19:30N 57°51' E 010°24'611.0
2017-Nov-05 19:00N 57°51' E 010°35'510.2
2017-Nov-05 18:29N 57°49' E 010°44'510.4
2017-Nov-05 18:00N 57°46' E 010°51'611.3
2017-Nov-05 17:30N 57°42' E 010°58'611.3
2017-Nov-05 17:00N 57°38' E 011°06'611.4
2017-Nov-05 16:29N 57°34' E 011°14'  

Dump ship's entire track history